sensor_id;sensor_type;location;lat;lon;timestamp;temperature;humidity
48162;DHT22;33950;48.154;16.316;2023-04-24T00:02:09;17.80;84.70
48162;DHT22;33950;48.154;16.316;2023-04-24T00:04:56;17.80;84.70
48162;DHT22;33950;48.154;16.316;2023-04-24T00:07:43;17.70;84.90
48162;DHT22;33950;48.154;16.316;2023-04-24T00:10:30;17.60;85.10
48162;DHT22;33950;48.154;16.316;2023-04-24T00:13:17;17.60;85.10
48162;DHT22;33950;48.154;16.316;2023-04-24T00:16:04;17.60;85.20
48162;DHT22;33950;48.154;16.316;2023-04-24T00:18:51;17.50;85.20
48162;DHT22;33950;48.154;16.316;2023-04-24T00:21:38;17.50;85.50
48162;DHT22;33950;48.154;16.316;2023-04-24T00:24:24;17.50;85.60
48162;DHT22;33950;48.154;16.316;2023-04-24T00:27:10;17.50;85.60
48162;DHT22;33950;48.154;16.316;2023-04-24T00:29:58;17.50;86.10
48162;DHT22;33950;48.154;16.316;2023-04-24T00:32:44;17.50;85.70
48162;DHT22;33950;48.154;16.316;2023-04-24T00:35:30;17.50;85.70
48162;DHT22;33950;48.154;16.316;2023-04-24T00:38:16;17.60;85.90
48162;DHT22;33950;48.154;16.316;2023-04-24T00:41:02;17.60;86.00
48162;DHT22;33950;48.154;16.316;2023-04-24T00:43:48;17.60;86.10
48162;DHT22;33950;48.154;16.316;2023-04-24T00:46:36;17.60;86.10
48162;DHT22;33950;48.154;16.316;2023-04-24T00:49:22;17.60;86.00
48162;DHT22;33950;48.154;16.316;2023-04-24T00:52:08;17.50;85.80
48162;DHT22;33950;48.154;16.316;2023-04-24T00:54:54;17.50;86.00
48162;DHT22;33950;48.154;16.316;2023-04-24T00:57:41;17.60;86.00
48162;DHT22;33950;48.154;16.316;2023-04-24T01:00:27;17.50;85.90
48162;DHT22;33950;48.154;16.316;2023-04-24T01:03:15;17.50;86.20
48162;DHT22;33950;48.154;16.316;2023-04-24T01:06:01;17.40;86.30
48162;DHT22;33950;48.154;16.316;2023-04-24T01:08:48;17.50;86.70
48162;DHT22;33950;48.154;16.316;2023-04-24T01:11:36;17.50;86.10
48162;DHT22;33950;48.154;16.316;2023-04-24T01:14:22;17.60;86.00
48162;DHT22;33950;48.154;16.316;2023-04-24T01:17:09;17.40;86.10
48162;DHT22;33950;48.154;16.316;2023-04-24T01:19:56;17.20;86.60
48162;DHT22;33950;48.154;16.316;2023-04-24T01:22:44;16.90;87.10
48162;DHT22;33950;48.154;16.316;2023-04-24T01:25:31;16.60;88.30
48162;DHT22;33950;48.154;16.316;2023-04-24T01:28:17;16.40;88.50
48162;DHT22;33950;48.154;16.316;2023-04-24T01:31:03;16.30;89.00
48162;DHT22;33950;48.154;16.316;2023-04-24T01:33:50;16.20;89.50
48162;DHT22;33950;48.154;16.316;2023-04-24T01:36:37;16.00;90.00
48162;DHT22;33950;48.154;16.316;2023-04-24T01:39:26;15.80;90.20
48162;DHT22;33950;48.154;16.316;2023-04-24T01:42:14;15.90;90.20
48162;DHT22;33950;48.154;16.316;2023-04-24T01:45:02;15.90;90.30
48162;DHT22;33950;48.154;16.316;2023-04-24T01:47:50;15.80;90.30
48162;DHT22;33950;48.154;16.316;2023-04-24T01:50:36;15.80;90.50
48162;DHT22;33950;48.154;16.316;2023-04-24T01:53:22;15.70;90.30
48162;DHT22;33950;48.154;16.316;2023-04-24T01:56:09;15.50;90.70
48162;DHT22;33950;48.154;16.316;2023-04-24T01:58:56;15.30;90.60
48162;DHT22;33950;48.154;16.316;2023-04-24T02:01:42;14.90;90.90
48162;DHT22;33950;48.154;16.316;2023-04-24T02:04:29;14.60;91.00
48162;DHT22;33950;48.154;16.316;2023-04-24T02:07:15;14.60;91.20
48162;DHT22;33950;48.154;16.316;2023-04-24T02:10:02;14.60;91.00
48162;DHT22;33950;48.154;16.316;2023-04-24T02:12:51;14.80;90.90
48162;DHT22;33950;48.154;16.316;2023-04-24T02:15:37;14.90;90.90
48162;DHT22;33950;48.154;16.316;2023-04-24T02:18:23;15.00;90.70
48162;DHT22;33950;48.154;16.316;2023-04-24T02:21:09;15.00;90.60
48162;DHT22;33950;48.154;16.316;2023-04-24T02:23:55;15.00;90.60
48162;DHT22;33950;48.154;16.316;2023-04-24T02:26:41;15.10;90.40
48162;DHT22;33950;48.154;16.316;2023-04-24T02:29:29;15.10;90.40
48162;DHT22;33950;48.154;16.316;2023-04-24T02:32:15;15.00;90.40
48162;DHT22;33950;48.154;16.316;2023-04-24T02:35:01;14.70;90.60
48162;DHT22;33950;48.154;16.316;2023-04-24T02:37:47;14.60;90.60
48162;DHT22;33950;48.154;16.316;2023-04-24T02:40:34;14.70;90.60
48162;DHT22;33950;48.154;16.316;2023-04-24T02:43:20;14.80;90.50
48162;DHT22;33950;48.154;16.316;2023-04-24T02:46:07;14.80;90.50
48162;DHT22;33950;48.154;16.316;2023-04-24T02:48:53;14.60;90.60
48162;DHT22;33950;48.154;16.316;2023-04-24T02:51:40;14.60;90.60
48162;DHT22;33950;48.154;16.316;2023-04-24T02:54:27;14.80;90.50
48162;DHT22;33950;48.154;16.316;2023-04-24T02:57:13;14.80;90.40
48162;DHT22;33950;48.154;16.316;2023-04-24T02:59:59;14.80;90.40
48162;DHT22;33950;48.154;16.316;2023-04-24T03:02:46;14.80;90.40
48162;DHT22;33950;48.154;16.316;2023-04-24T03:05:33;14.90;90.40
48162;DHT22;33950;48.154;16.316;2023-04-24T03:08:19;14.80;90.50
48162;DHT22;33950;48.154;16.316;2023-04-24T03:11:05;14.70;90.50
48162;DHT22;33950;48.154;16.316;2023-04-24T03:13:51;14.80;90.60
48162;DHT22;33950;48.154;16.316;2023-04-24T03:16:37;14.70;90.60
48162;DHT22;33950;48.154;16.316;2023-04-24T03:19:25;14.70;90.70
48162;DHT22;33950;48.154;16.316;2023-04-24T03:22:11;14.60;90.80
48162;DHT22;33950;48.154;16.316;2023-04-24T03:24:58;14.60;90.90
48162;DHT22;33950;48.154;16.316;2023-04-24T03:27:44;14.60;90.90
48162;DHT22;33950;48.154;16.316;2023-04-24T03:30:30;14.60;90.90
48162;DHT22;33950;48.154;16.316;2023-04-24T03:33:16;14.60;90.90
48162;DHT22;33950;48.154;16.316;2023-04-24T03:36:04;14.60;91.00
48162;DHT22;33950;48.154;16.316;2023-04-24T03:38:50;14.60;91.00
48162;DHT22;33950;48.154;16.316;2023-04-24T03:41:36;14.60;91.10
48162;DHT22;33950;48.154;16.316;2023-04-24T03:44:22;14.40;91.40
48162;DHT22;33950;48.154;16.316;2023-04-24T03:47:09;14.30;91.60
48162;DHT22;33950;48.154;16.316;2023-04-24T03:49:55;14.30;91.70
48162;DHT22;33950;48.154;16.316;2023-04-24T03:52:43;14.30;91.90
48162;DHT22;33950;48.154;16.316;2023-04-24T03:55:29;14.30;91.80
48162;DHT22;33950;48.154;16.316;2023-04-24T03:58:15;14.30;92.00
48162;DHT22;33950;48.154;16.316;2023-04-24T04:01:01;14.30;92.10
48162;DHT22;33950;48.154;16.316;2023-04-24T04:03:48;14.30;92.30
48162;DHT22;33950;48.154;16.316;2023-04-24T04:06:34;14.20;92.50
48162;DHT22;33950;48.154;16.316;2023-04-24T04:09:23;14.20;92.60
48162;DHT22;33950;48.154;16.316;2023-04-24T04:12:09;14.10;92.70
48162;DHT22;33950;48.154;16.316;2023-04-24T04:14:55;14.20;92.60
48162;DHT22;33950;48.154;16.316;2023-04-24T04:17:41;14.10;92.70
48162;DHT22;33950;48.154;16.316;2023-04-24T04:20:27;14.10;92.80
48162;DHT22;33950;48.154;16.316;2023-04-24T04:23:13;14.10;92.70
48162;DHT22;33950;48.154;16.316;2023-04-24T04:26:01;14.20;92.80
48162;DHT22;33950;48.154;16.316;2023-04-24T04:28:47;14.10;92.80
48162;DHT22;33950;48.154;16.316;2023-04-24T04:31:34;14.30;92.80
48162;DHT22;33950;48.154;16.316;2023-04-24T04:34:20;14.20;92.70
48162;DHT22;33950;48.154;16.316;2023-04-24T04:37:06;14.20;92.70
48162;DHT22;33950;48.154;16.316;2023-04-24T04:39:53;14.20;92.80
48162;DHT22;33950;48.154;16.316;2023-04-24T04:42:40;14.10;92.80
48162;DHT22;33950;48.154;16.316;2023-04-24T04:45:28;14.20;92.90
48162;DHT22;33950;48.154;16.316;2023-04-24T04:48:14;14.20;92.80
48162;DHT22;33950;48.154;16.316;2023-04-24T04:51:03;14.20;92.80
48162;DHT22;33950;48.154;16.316;2023-04-24T04:53:49;14.20;92.90
48162;DHT22;33950;48.154;16.316;2023-04-24T04:56:38;14.20;92.80
48162;DHT22;33950;48.154;16.316;2023-04-24T04:59:26;14.20;92.90
48162;DHT22;33950;48.154;16.316;2023-04-24T05:02:12;14.20;92.90
48162;DHT22;33950;48.154;16.316;2023-04-24T05:04:58;14.30;92.90
48162;DHT22;33950;48.154;16.316;2023-04-24T05:07:44;14.40;92.60
48162;DHT22;33950;48.154;16.316;2023-04-24T05:10:30;14.40;92.70
48162;DHT22;33950;48.154;16.316;2023-04-24T05:13:16;14.30;92.70
48162;DHT22;33950;48.154;16.316;2023-04-24T05:16:04;14.30;92.70
48162;DHT22;33950;48.154;16.316;2023-04-24T05:18:50;14.50;92.70
48162;DHT22;33950;48.154;16.316;2023-04-24T05:21:36;14.50;92.60
48162;DHT22;33950;48.154;16.316;2023-04-24T05:24:22;14.50;92.60
48162;DHT22;33950;48.154;16.316;2023-04-24T05:27:09;14.50;92.50
48162;DHT22;33950;48.154;16.316;2023-04-24T05:29:55;14.50;92.40
48162;DHT22;33950;48.154;16.316;2023-04-24T05:32:42;14.60;92.60
48162;DHT22;33950;48.154;16.316;2023-04-24T05:35:29;14.60;92.20
48162;DHT22;33950;48.154;16.316;2023-04-24T05:38:15;14.60;92.20
48162;DHT22;33950;48.154;16.316;2023-04-24T05:41:03;14.80;92.10
48162;DHT22;33950;48.154;16.316;2023-04-24T05:43:49;14.80;91.90
48162;DHT22;33950;48.154;16.316;2023-04-24T05:46:35;14.90;91.80
48162;DHT22;33950;48.154;16.316;2023-04-24T05:49:23;14.80;91.80
48162;DHT22;33950;48.154;16.316;2023-04-24T05:52:09;14.80;91.80
48162;DHT22;33950;48.154;16.316;2023-04-24T05:54:55;14.80;91.90
48162;DHT22;33950;48.154;16.316;2023-04-24T05:57:41;14.80;91.80
48162;DHT22;33950;48.154;16.316;2023-04-24T06:00:28;14.70;91.60
48162;DHT22;33950;48.154;16.316;2023-04-24T06:03:14;14.70;91.70
48162;DHT22;33950;48.154;16.316;2023-04-24T06:06:01;14.80;91.70
48162;DHT22;33950;48.154;16.316;2023-04-24T06:08:48;14.80;91.50
48162;DHT22;33950;48.154;16.316;2023-04-24T06:11:34;14.90;91.60
48162;DHT22;33950;48.154;16.316;2023-04-24T06:14:20;15.00;91.60
48162;DHT22;33950;48.154;16.316;2023-04-24T06:17:07;15.00;91.30
48162;DHT22;33950;48.154;16.316;2023-04-24T06:19:53;15.10;91.20
48162;DHT22;33950;48.154;16.316;2023-04-24T06:22:40;15.20;91.10
48162;DHT22;33950;48.154;16.316;2023-04-24T06:25:26;15.30;90.90
48162;DHT22;33950;48.154;16.316;2023-04-24T06:28:12;15.50;91.10
48162;DHT22;33950;48.154;16.316;2023-04-24T06:31:00;15.50;90.70
48162;DHT22;33950;48.154;16.316;2023-04-24T06:33:46;15.60;90.70
48162;DHT22;33950;48.154;16.316;2023-04-24T06:36:32;15.50;90.80
48162;DHT22;33950;48.154;16.316;2023-04-24T06:39:21;15.50;90.80
48162;DHT22;33950;48.154;16.316;2023-04-24T06:42:08;15.50;90.80
48162;DHT22;33950;48.154;16.316;2023-04-24T06:44:55;15.70;90.70
48162;DHT22;33950;48.154;16.316;2023-04-24T06:47:41;15.80;90.30
48162;DHT22;33950;48.154;16.316;2023-04-24T06:50:27;15.80;90.30
48162;DHT22;33950;48.154;16.316;2023-04-24T06:53:13;15.80;90.30
48162;DHT22;33950;48.154;16.316;2023-04-24T06:56:01;15.90;90.40
48162;DHT22;33950;48.154;16.316;2023-04-24T06:58:47;16.00;90.40
48162;DHT22;33950;48.154;16.316;2023-04-24T07:01:34;16.00;90.40
48162;DHT22;33950;48.154;16.316;2023-04-24T07:04:20;15.90;90.30
48162;DHT22;33950;48.154;16.316;2023-04-24T07:07:06;15.80;90.10
48162;DHT22;33950;48.154;16.316;2023-04-24T07:09:52;15.70;90.50
48162;DHT22;33950;48.154;16.316;2023-04-24T07:12:41;15.70;90.40
48162;DHT22;33950;48.154;16.316;2023-04-24T07:15:27;15.50;90.70
48162;DHT22;33950;48.154;16.316;2023-04-24T07:18:13;15.50;90.80
48162;DHT22;33950;48.154;16.316;2023-04-24T07:21:00;15.30;90.90
48162;DHT22;33950;48.154;16.316;2023-04-24T07:23:46;15.30;91.30
48162;DHT22;33950;48.154;16.316;2023-04-24T07:26:32;15.30;91.00
48162;DHT22;33950;48.154;16.316;2023-04-24T07:29:20;15.30;91.30
48162;DHT22;33950;48.154;16.316;2023-04-24T07:32:06;15.30;91.70
48162;DHT22;33950;48.154;16.316;2023-04-24T07:34:53;15.20;91.50
48162;DHT22;33950;48.154;16.316;2023-04-24T07:37:39;15.20;91.40
48162;DHT22;33950;48.154;16.316;2023-04-24T07:40:26;15.10;91.50
48162;DHT22;33950;48.154;16.316;2023-04-24T07:43:12;15.00;91.80
48162;DHT22;33950;48.154;16.316;2023-04-24T07:45:59;14.80;92.30
48162;DHT22;33950;48.154;16.316;2023-04-24T07:48:46;14.80;92.40
48162;DHT22;33950;48.154;16.316;2023-04-24T07:51:33;14.80;92.50
48162;DHT22;33950;48.154;16.316;2023-04-24T07:54:23;14.80;92.20
48162;DHT22;33950;48.154;16.316;2023-04-24T07:57:10;14.70;92.40
48162;DHT22;33950;48.154;16.316;2023-04-24T07:59:56;14.80;92.40
48162;DHT22;33950;48.154;16.316;2023-04-24T08:02:43;14.80;92.60
48162;DHT22;33950;48.154;16.316;2023-04-24T08:05:29;14.80;92.50
48162;DHT22;33950;48.154;16.316;2023-04-24T08:08:16;14.90;92.20
48162;DHT22;33950;48.154;16.316;2023-04-24T08:11:02;14.90;92.20
48162;DHT22;33950;48.154;16.316;2023-04-24T08:13:48;14.80;91.90
48162;DHT22;33950;48.154;16.316;2023-04-24T08:16:35;14.80;92.00
48162;DHT22;33950;48.154;16.316;2023-04-24T08:19:22;14.70;92.00
48162;DHT22;33950;48.154;16.316;2023-04-24T08:22:08;14.60;91.80
48162;DHT22;33950;48.154;16.316;2023-04-24T08:24:55;14.60;91.80
48162;DHT22;33950;48.154;16.316;2023-04-24T08:27:42;14.60;92.00
48162;DHT22;33950;48.154;16.316;2023-04-24T08:30:29;14.50;92.80
48162;DHT22;33950;48.154;16.316;2023-04-24T08:33:15;14.20;93.80
48162;DHT22;33950;48.154;16.316;2023-04-24T08:36:04;14.00;94.90
48162;DHT22;33950;48.154;16.316;2023-04-24T08:38:51;13.80;95.90
48162;DHT22;33950;48.154;16.316;2023-04-24T08:41:37;13.50;96.50
48162;DHT22;33950;48.154;16.316;2023-04-24T08:44:23;13.20;97.50
48162;DHT22;33950;48.154;16.316;2023-04-24T08:47:10;13.00;97.90
48162;DHT22;33950;48.154;16.316;2023-04-24T08:49:57;12.80;97.80
48162;DHT22;33950;48.154;16.316;2023-04-24T08:52:48;12.70;98.50
48162;DHT22;33950;48.154;16.316;2023-04-24T08:55:35;12.60;99.10
48162;DHT22;33950;48.154;16.316;2023-04-24T08:58:24;12.70;99.50
48162;DHT22;33950;48.154;16.316;2023-04-24T09:01:12;12.70;99.50
48162;DHT22;33950;48.154;16.316;2023-04-24T09:04:01;12.70;99.50
48162;DHT22;33950;48.154;16.316;2023-04-24T09:06:48;12.60;99.50
48162;DHT22;33950;48.154;16.316;2023-04-24T09:09:37;12.50;99.20
48162;DHT22;33950;48.154;16.316;2023-04-24T09:12:24;12.50;99.40
48162;DHT22;33950;48.154;16.316;2023-04-24T09:15:11;12.50;98.90
48162;DHT22;33950;48.154;16.316;2023-04-24T09:17:58;12.40;98.80
48162;DHT22;33950;48.154;16.316;2023-04-24T09:21:00;12.50;98.70
48162;DHT22;33950;48.154;16.316;2023-04-24T09:23:47;12.40;98.50
48162;DHT22;33950;48.154;16.316;2023-04-24T09:26:44;12.30;98.10
48162;DHT22;33950;48.154;16.316;2023-04-24T09:29:30;12.30;98.30
48162;DHT22;33950;48.154;16.316;2023-04-24T09:32:19;12.40;98.10
48162;DHT22;33950;48.154;16.316;2023-04-24T09:35:10;12.30;98.00
48162;DHT22;33950;48.154;16.316;2023-04-24T09:37:57;12.30;98.20
48162;DHT22;33950;48.154;16.316;2023-04-24T09:40:44;12.40;98.10
48162;DHT22;33950;48.154;16.316;2023-04-24T09:43:31;12.50;98.10
48162;DHT22;33950;48.154;16.316;2023-04-24T09:46:18;12.70;97.70
48162;DHT22;33950;48.154;16.316;2023-04-24T09:49:08;12.70;97.30
48162;DHT22;33950;48.154;16.316;2023-04-24T09:52:03;12.60;97.30
48162;DHT22;33950;48.154;16.316;2023-04-24T09:54:53;12.70;97.20
48162;DHT22;33950;48.154;16.316;2023-04-24T09:57:47;12.80;96.90
48162;DHT22;33950;48.154;16.316;2023-04-24T10:00:35;12.70;96.50
48162;DHT22;33950;48.154;16.316;2023-04-24T10:03:24;12.80;96.80
48162;DHT22;33950;48.154;16.316;2023-04-24T10:06:12;12.80;96.50
48162;DHT22;33950;48.154;16.316;2023-04-24T10:08:58;12.90;96.60
48162;DHT22;33950;48.154;16.316;2023-04-24T10:11:46;12.90;96.30
48162;DHT22;33950;48.154;16.316;2023-04-24T10:14:32;13.00;96.30
48162;DHT22;33950;48.154;16.316;2023-04-24T10:17:21;13.10;96.20
48162;DHT22;33950;48.154;16.316;2023-04-24T10:20:08;13.10;96.20
48162;DHT22;33950;48.154;16.316;2023-04-24T10:22:54;13.20;95.90
48162;DHT22;33950;48.154;16.316;2023-04-24T10:25:40;13.20;95.50
48162;DHT22;33950;48.154;16.316;2023-04-24T10:28:27;13.10;95.80
48162;DHT22;33950;48.154;16.316;2023-04-24T10:31:14;13.10;95.90
48162;DHT22;33950;48.154;16.316;2023-04-24T10:34:02;13.10;96.10
48162;DHT22;33950;48.154;16.316;2023-04-24T10:36:51;13.20;96.10
48162;DHT22;33950;48.154;16.316;2023-04-24T10:39:37;13.30;96.20
48162;DHT22;33950;48.154;16.316;2023-04-24T10:42:27;13.30;95.60
48162;DHT22;33950;48.154;16.316;2023-04-24T10:45:17;13.30;95.70
48162;DHT22;33950;48.154;16.316;2023-04-24T10:48:05;13.40;95.70
48162;DHT22;33950;48.154;16.316;2023-04-24T10:50:58;13.40;96.20
48162;DHT22;33950;48.154;16.316;2023-04-24T10:53:44;13.30;95.70
48162;DHT22;33950;48.154;16.316;2023-04-24T10:56:33;13.40;96.00
48162;DHT22;33950;48.154;16.316;2023-04-24T10:59:26;13.40;95.40
48162;DHT22;33950;48.154;16.316;2023-04-24T11:02:14;13.50;95.70
48162;DHT22;33950;48.154;16.316;2023-04-24T11:05:04;13.60;96.00
48162;DHT22;33950;48.154;16.316;2023-04-24T11:08:11;13.70;96.30
48162;DHT22;33950;48.154;16.316;2023-04-24T11:11:00;13.40;96.20
48162;DHT22;33950;48.154;16.316;2023-04-24T11:14:06;13.30;97.00
48162;DHT22;33950;48.154;16.316;2023-04-24T11:16:53;13.30;97.30
48162;DHT22;33950;48.154;16.316;2023-04-24T11:19:40;13.20;97.60
48162;DHT22;33950;48.154;16.316;2023-04-24T11:22:28;13.10;97.80
48162;DHT22;33950;48.154;16.316;2023-04-24T11:25:16;13.10;97.80
48162;DHT22;33950;48.154;16.316;2023-04-24T11:28:05;13.00;97.80
48162;DHT22;33950;48.154;16.316;2023-04-24T11:30:51;13.00;98.40
48162;DHT22;33950;48.154;16.316;2023-04-24T11:33:38;12.90;99.50
48162;DHT22;33950;48.154;16.316;2023-04-24T11:36:24;12.80;99.90
48162;DHT22;33950;48.154;16.316;2023-04-24T11:39:12;12.90;99.90
48162;DHT22;33950;48.154;16.316;2023-04-24T11:42:03;12.90;99.90
48162;DHT22;33950;48.154;16.316;2023-04-24T11:44:53;12.80;99.90
48162;DHT22;33950;48.154;16.316;2023-04-24T11:47:41;12.90;99.90
48162;DHT22;33950;48.154;16.316;2023-04-24T11:50:27;12.90;99.90
48162;DHT22;33950;48.154;16.316;2023-04-24T11:53:15;12.90;99.90
48162;DHT22;33950;48.154;16.316;2023-04-24T11:56:03;13.00;99.90
48162;DHT22;33950;48.154;16.316;2023-04-24T11:58:52;13.00;99.90
48162;DHT22;33950;48.154;16.316;2023-04-24T12:01:43;13.10;99.90
48162;DHT22;33950;48.154;16.316;2023-04-24T12:04:38;13.20;99.90
48162;DHT22;33950;48.154;16.316;2023-04-24T12:07:25;13.30;99.90
48162;DHT22;33950;48.154;16.316;2023-04-24T12:10:11;13.40;99.90
48162;DHT22;33950;48.154;16.316;2023-04-24T12:12:58;13.40;99.90
48162;DHT22;33950;48.154;16.316;2023-04-24T12:15:46;13.50;99.90
48162;DHT22;33950;48.154;16.316;2023-04-24T12:18:32;13.60;99.90
48162;DHT22;33950;48.154;16.316;2023-04-24T12:21:19;13.80;99.90
48162;DHT22;33950;48.154;16.316;2023-04-24T12:24:06;13.90;99.90
48162;DHT22;33950;48.154;16.316;2023-04-24T12:26:52;13.90;99.90
48162;DHT22;33950;48.154;16.316;2023-04-24T12:29:51;14.10;99.90
48162;DHT22;33950;48.154;16.316;2023-04-24T12:32:42;14.20;99.90
48162;DHT22;33950;48.154;16.316;2023-04-24T12:35:30;14.10;99.90
48162;DHT22;33950;48.154;16.316;2023-04-24T12:38:22;14.20;99.90
48162;DHT22;33950;48.154;16.316;2023-04-24T12:41:13;14.30;99.90
48162;DHT22;33950;48.154;16.316;2023-04-24T12:43:59;14.30;99.90
48162;DHT22;33950;48.154;16.316;2023-04-24T12:46:45;14.50;99.90
48162;DHT22;33950;48.154;16.316;2023-04-24T12:49:33;14.60;99.90
48162;DHT22;33950;48.154;16.316;2023-04-24T12:52:19;14.70;99.90
48162;DHT22;33950;48.154;16.316;2023-04-24T12:55:08;14.80;99.90
48162;DHT22;33950;48.154;16.316;2023-04-24T12:57:55;14.80;99.90
48162;DHT22;33950;48.154;16.316;2023-04-24T13:00:41;14.90;99.90
48162;DHT22;33950;48.154;16.316;2023-04-24T13:03:29;14.90;99.90
48162;DHT22;33950;48.154;16.316;2023-04-24T13:06:16;14.90;99.90
48162;DHT22;33950;48.154;16.316;2023-04-24T13:09:02;14.90;99.90
48162;DHT22;33950;48.154;16.316;2023-04-24T13:11:49;15.00;99.90
48162;DHT22;33950;48.154;16.316;2023-04-24T13:14:36;15.10;99.80
48162;DHT22;33950;48.154;16.316;2023-04-24T13:17:22;15.20;99.60
48162;DHT22;33950;48.154;16.316;2023-04-24T13:20:08;15.20;99.50
48162;DHT22;33950;48.154;16.316;2023-04-24T13:22:55;15.20;99.50
48162;DHT22;33950;48.154;16.316;2023-04-24T13:25:41;15.20;99.50
48162;DHT22;33950;48.154;16.316;2023-04-24T13:28:28;15.20;99.40
48162;DHT22;33950;48.154;16.316;2023-04-24T13:31:15;15.40;98.80
48162;DHT22;33950;48.154;16.316;2023-04-24T13:34:02;15.20;98.60
48162;DHT22;33950;48.154;16.316;2023-04-24T13:36:48;15.10;98.20
48162;DHT22;33950;48.154;16.316;2023-04-24T13:39:36;15.00;98.40
48162;DHT22;33950;48.154;16.316;2023-04-24T13:42:22;14.90;98.60
48162;DHT22;33950;48.154;16.316;2023-04-24T13:45:09;14.90;98.10
48162;DHT22;33950;48.154;16.316;2023-04-24T13:47:56;14.80;98.30
48162;DHT22;33950;48.154;16.316;2023-04-24T13:50:43;14.70;98.30
48162;DHT22;33950;48.154;16.316;2023-04-24T13:53:29;14.60;98.30
48162;DHT22;33950;48.154;16.316;2023-04-24T13:56:18;14.60;98.30
48162;DHT22;33950;48.154;16.316;2023-04-24T13:59:04;14.60;98.10
48162;DHT22;33950;48.154;16.316;2023-04-24T14:01:51;14.50;98.40
48162;DHT22;33950;48.154;16.316;2023-04-24T14:04:37;14.50;98.20
48162;DHT22;33950;48.154;16.316;2023-04-24T14:07:23;14.50;98.50
48162;DHT22;33950;48.154;16.316;2023-04-24T14:10:10;14.50;98.60
48162;DHT22;33950;48.154;16.316;2023-04-24T14:12:57;14.50;98.70
48162;DHT22;33950;48.154;16.316;2023-04-24T14:15:43;14.60;98.90
48162;DHT22;33950;48.154;16.316;2023-04-24T14:18:30;14.70;98.90
48162;DHT22;33950;48.154;16.316;2023-04-24T14:21:16;14.80;98.90
48162;DHT22;33950;48.154;16.316;2023-04-24T14:24:02;14.80;98.80
48162;DHT22;33950;48.154;16.316;2023-04-24T14:26:48;14.80;98.90
48162;DHT22;33950;48.154;16.316;2023-04-24T14:29:36;14.70;98.80
48162;DHT22;33950;48.154;16.316;2023-04-24T14:32:22;14.60;99.30
48162;DHT22;33950;48.154;16.316;2023-04-24T14:35:08;14.40;99.90
48162;DHT22;33950;48.154;16.316;2023-04-24T14:37:54;14.20;99.90
48162;DHT22;33950;48.154;16.316;2023-04-24T14:40:40;14.00;99.90
48162;DHT22;33950;48.154;16.316;2023-04-24T14:43:27;13.80;99.90
48162;DHT22;33950;48.154;16.316;2023-04-24T14:46:14;13.70;99.90
48162;DHT22;33950;48.154;16.316;2023-04-24T14:49:00;13.60;99.90
48162;DHT22;33950;48.154;16.316;2023-04-24T14:51:46;13.50;99.90
48162;DHT22;33950;48.154;16.316;2023-04-24T14:54:32;13.50;99.90
48162;DHT22;33950;48.154;16.316;2023-04-24T14:57:18;13.40;99.90
48162;DHT22;33950;48.154;16.316;2023-04-24T15:00:06;13.40;99.90
48162;DHT22;33950;48.154;16.316;2023-04-24T15:02:55;13.30;99.90
48162;DHT22;33950;48.154;16.316;2023-04-24T15:05:41;13.30;99.90
48162;DHT22;33950;48.154;16.316;2023-04-24T15:08:27;13.40;99.90
48162;DHT22;33950;48.154;16.316;2023-04-24T15:11:14;13.30;99.90
48162;DHT22;33950;48.154;16.316;2023-04-24T15:14:00;13.20;99.90
48162;DHT22;33950;48.154;16.316;2023-04-24T15:16:46;13.10;99.90
48162;DHT22;33950;48.154;16.316;2023-04-24T15:19:33;13.10;99.90
48162;DHT22;33950;48.154;16.316;2023-04-24T15:25:07;12.90;99.90
48162;DHT22;33950;48.154;16.316;2023-04-24T15:30:40;12.60;99.90
48162;DHT22;33950;48.154;16.316;2023-04-24T15:33:26;12.20;99.90
48162;DHT22;33950;48.154;16.316;2023-04-24T15:36:13;12.30;99.90
48162;DHT22;33950;48.154;16.316;2023-04-24T15:39:01;12.10;99.90
48162;DHT22;33950;48.154;16.316;2023-04-24T15:41:47;11.90;99.90
48162;DHT22;33950;48.154;16.316;2023-04-24T15:44:33;11.60;99.90
48162;DHT22;33950;48.154;16.316;2023-04-24T15:47:19;11.50;99.90
48162;DHT22;33950;48.154;16.316;2023-04-24T15:50:06;11.30;99.90
48162;DHT22;33950;48.154;16.316;2023-04-24T15:52:57;11.20;99.90
48162;DHT22;33950;48.154;16.316;2023-04-24T15:55:43;11.10;99.90
48162;DHT22;33950;48.154;16.316;2023-04-24T15:58:29;11.10;99.90
48162;DHT22;33950;48.154;16.316;2023-04-24T16:01:16;11.10;99.90
48162;DHT22;33950;48.154;16.316;2023-04-24T16:04:02;11.10;99.90
48162;DHT22;33950;48.154;16.316;2023-04-24T16:06:48;11.00;99.90
48162;DHT22;33950;48.154;16.316;2023-04-24T16:09:35;11.00;99.90
48162;DHT22;33950;48.154;16.316;2023-04-24T16:12:21;10.90;99.90
48162;DHT22;33950;48.154;16.316;2023-04-24T16:15:08;11.00;99.90
48162;DHT22;33950;48.154;16.316;2023-04-24T16:17:55;11.10;99.90
48162;DHT22;33950;48.154;16.316;2023-04-24T16:20:41;11.00;99.90
48162;DHT22;33950;48.154;16.316;2023-04-24T16:23:27;10.90;99.90
48162;DHT22;33950;48.154;16.316;2023-04-24T16:26:15;10.90;99.90
48162;DHT22;33950;48.154;16.316;2023-04-24T16:29:01;10.90;99.90
48162;DHT22;33950;48.154;16.316;2023-04-24T16:31:47;10.80;99.90
48162;DHT22;33950;48.154;16.316;2023-04-24T16:34:33;11.00;99.90
48162;DHT22;33950;48.154;16.316;2023-04-24T16:37:19;10.80;99.90
48162;DHT22;33950;48.154;16.316;2023-04-24T16:40:07;11.00;99.90
48162;DHT22;33950;48.154;16.316;2023-04-24T16:42:57;10.80;99.90
48162;DHT22;33950;48.154;16.316;2023-04-24T16:45:43;10.90;99.90
48162;DHT22;33950;48.154;16.316;2023-04-24T16:48:32;10.80;99.90
48162;DHT22;33950;48.154;16.316;2023-04-24T16:51:19;10.80;99.90
48162;DHT22;33950;48.154;16.316;2023-04-24T16:54:05;10.90;99.90
48162;DHT22;33950;48.154;16.316;2023-04-24T16:56:52;10.90;99.90
48162;DHT22;33950;48.154;16.316;2023-04-24T16:59:39;10.80;99.90
48162;DHT22;33950;48.154;16.316;2023-04-24T17:02:25;11.00;99.90
48162;DHT22;33950;48.154;16.316;2023-04-24T17:05:12;11.00;99.90
48162;DHT22;33950;48.154;16.316;2023-04-24T17:07:58;11.20;99.90
48162;DHT22;33950;48.154;16.316;2023-04-24T17:10:44;11.30;99.90
48162;DHT22;33950;48.154;16.316;2023-04-24T17:13:30;11.30;99.90
48162;DHT22;33950;48.154;16.316;2023-04-24T17:16:17;11.40;99.90
48162;DHT22;33950;48.154;16.316;2023-04-24T17:19:04;11.40;99.90
48162;DHT22;33950;48.154;16.316;2023-04-24T17:21:50;11.50;99.90
48162;DHT22;33950;48.154;16.316;2023-04-24T17:24:36;11.60;99.90